Terminal Aerodrome Forecast
Issued by NWS Flagstaff, AZ

Home | Current Version | Previous Version | Text Only | Print | Product List | Glossary On
Versions: 1 2 3 4 5 6 7 8 9 10 11 12
000
FTUS45 KFGZ 211143
TAFFLG
TAF
KFLG 211143Z 2112/2212 23010G18KT P6SM SKC
     FM211500 21020G29KT P6SM FEW150
     FM211800 21028G38KT P6SM SCT150
     FM220400 23017G25KT P6SM FEW150=

USA.gov is the U.S. government's official web portal to all federal, state and local government web resources and services.